Macaé, Plataforma P-25 Airport (SBLB)

NamePlataforma P-25 Airport
CityMacaé
CountryBrazil
ICAOSBLB
IATA
Altitude0 m
CoordinatesGoogle Map
Live Air TrafficLiveATC.net
METARSBLB 251700Z AUTO 09015KT 9999 NCD 26/18 Q1019 W27/S4
2020-04-25 17:00:00 Wind: East (90°) 7.72 m/s - Visibility: > 10000 m - Temperature: 26 °C - Dew point: 18 °C - Humidity: 61.4% - Pressure: 1019 hPa

Sorry, no flights used the airport in this database.